sensor_id;sensor_type;location;lat;lon;timestamp;pressure;altitude;pressure_sealevel;temperature;humidity
62524;BME280;53689;56.878;60.672;2022-12-10T00:01:52;99494.22;;;22.20;21.00
62524;BME280;53689;56.878;60.672;2022-12-10T00:04:20;99497.06;;;22.18;20.76
62524;BME280;53689;56.878;60.672;2022-12-10T00:06:48;99498.75;;;22.19;20.25
62524;BME280;53689;56.878;60.672;2022-12-10T00:09:17;99500.28;;;22.22;20.59
62524;BME280;53689;56.878;60.672;2022-12-10T00:11:45;99495.22;;;22.18;20.64
62524;BME280;53689;56.878;60.672;2022-12-10T00:14:14;99503.97;;;22.21;19.98
62524;BME280;53689;56.878;60.672;2022-12-10T00:16:42;99497.94;;;22.18;19.79
62524;BME280;53689;56.878;60.672;2022-12-10T00:19:10;99487.66;;;22.14;20.31
62524;BME280;53689;56.878;60.672;2022-12-10T00:21:38;99491.00;;;22.16;21.08
62524;BME280;53689;56.878;60.672;2022-12-10T00:24:06;99498.75;;;22.19;19.75
62524;BME280;53689;56.878;60.672;2022-12-10T00:26:35;99492.53;;;22.18;20.78
62524;BME280;53689;56.878;60.672;2022-12-10T00:29:04;99498.44;;;22.14;20.13
62524;BME280;53689;56.878;60.672;2022-12-10T00:31:36;99493.69;;;22.24;20.45
62524;BME280;53689;56.878;60.672;2022-12-10T00:34:07;99496.91;;;22.20;20.12
62524;BME280;53689;56.878;60.672;2022-12-10T00:36:37;99494.38;;;22.18;20.31
62524;BME280;53689;56.878;60.672;2022-12-10T00:39:06;99489.84;;;22.18;20.25
62524;BME280;53689;56.878;60.672;2022-12-10T00:41:33;99493.22;;;22.04;20.46
62524;BME280;53689;56.878;60.672;2022-12-10T00:44:01;99489.66;;;22.20;20.07
62524;BME280;53689;56.878;60.672;2022-12-10T00:46:29;99489.84;;;22.18;20.79
62524;BME280;53689;56.878;60.672;2022-12-10T00:48:58;99489.16;;;22.16;19.78
62524;BME280;53689;56.878;60.672;2022-12-10T00:51:27;99491.69;;;22.18;20.95
62524;BME280;53689;56.878;60.672;2022-12-10T00:53:56;99496.41;;;22.24;20.77
62524;BME280;53689;56.878;60.672;2022-12-10T00:56:26;99499.09;;;22.16;20.47
62524;BME280;53689;56.878;60.672;2022-12-10T00:58:55;99500.28;;;22.22;20.43
62524;BME280;53689;56.878;60.672;2022-12-10T01:01:24;99506.53;;;22.22;20.52
62524;BME280;53689;56.878;60.672;2022-12-10T01:03:54;99497.75;;;22.20;19.21
62524;BME280;53689;56.878;60.672;2022-12-10T01:06:24;99495.91;;;22.21;20.25
62524;BME280;53689;56.878;60.672;2022-12-10T01:08:54;99493.69;;;22.24;20.74
62524;BME280;53689;56.878;60.672;2022-12-10T01:11:26;99496.22;;;22.26;20.82
62524;BME280;53689;56.878;60.672;2022-12-10T01:13:55;99498.06;;;22.25;20.50
62524;BME280;53689;56.878;60.672;2022-12-10T01:16:23;99496.22;;;22.26;20.25
62524;BME280;53689;56.878;60.672;2022-12-10T01:18:53;99495.38;;;22.17;19.92
62524;BME280;53689;56.878;60.672;2022-12-10T01:21:21;99496.72;;;22.29;21.29
62524;BME280;53689;56.878;60.672;2022-12-10T01:23:51;99491.50;;;22.20;21.30
62524;BME280;53689;56.878;60.672;2022-12-10T01:26:22;99499.09;;;22.24;21.18
62524;BME280;53689;56.878;60.672;2022-12-10T01:28:50;99496.72;;;22.29;21.40
62524;BME280;53689;56.878;60.672;2022-12-10T01:31:19;99502.94;;;22.30;21.38
62524;BME280;53689;56.878;60.672;2022-12-10T01:33:48;99508.50;;;22.28;21.02
62524;BME280;53689;56.878;60.672;2022-12-10T01:36:17;99513.25;;;22.26;20.56
62524;BME280;53689;56.878;60.672;2022-12-10T01:38:46;99512.41;;;22.26;20.77
62524;BME280;53689;56.878;60.672;2022-12-10T01:41:17;99512.75;;;22.23;19.87
62524;BME280;53689;56.878;60.672;2022-12-10T01:43:54;99510.53;;;22.26;20.48
62524;BME280;53689;56.878;60.672;2022-12-10T01:46:24;99499.75;;;22.26;20.89
62524;BME280;53689;56.878;60.672;2022-12-10T01:48:52;99500.47;;;22.20;20.18
62524;BME280;53689;56.878;60.672;2022-12-10T01:51:21;99498.41;;;22.30;20.89
62524;BME280;53689;56.878;60.672;2022-12-10T01:53:49;99497.56;;;22.22;19.15
62524;BME280;53689;56.878;60.672;2022-12-10T01:56:19;99489.97;;;22.25;20.80
62524;BME280;53689;56.878;60.672;2022-12-10T01:58:50;99489.97;;;22.25;20.69
62524;BME280;53689;56.878;60.672;2022-12-10T02:01:24;99489.47;;;22.30;20.92
62524;BME280;53689;56.878;60.672;2022-12-10T02:04:02;99483.75;;;22.25;21.18
62524;BME280;53689;56.878;60.672;2022-12-10T02:06:42;99482.75;;;22.26;18.78
62524;BME280;53689;56.878;60.672;2022-12-10T02:09:19;99477.16;;;22.27;20.44
62524;BME280;53689;56.878;60.672;2022-12-10T02:11:58;99483.03;;;22.31;20.18
62524;BME280;53689;56.878;60.672;2022-12-10T02:14:31;99477.84;;;22.29;20.72
62524;BME280;53689;56.878;60.672;2022-12-10T02:17:03;99479.19;;;22.25;20.94
62524;BME280;53689;56.878;60.672;2022-12-10T02:19:48;99478.50;;;22.31;21.08
62524;BME280;53689;56.878;60.672;2022-12-10T02:22:22;99484.72;;;22.32;21.30
62524;BME280;53689;56.878;60.672;2022-12-10T02:24:54;99481.00;;;22.33;21.48
62524;BME280;53689;56.878;60.672;2022-12-10T02:27:29;99489.31;;;22.31;20.72
62524;BME280;53689;56.878;60.672;2022-12-10T02:30:02;99493.84;;;22.31;20.91
62524;BME280;53689;56.878;60.672;2022-12-10T02:32:35;99483.41;;;22.28;20.93
62524;BME280;53689;56.878;60.672;2022-12-10T02:35:08;99491.50;;;22.20;19.69
62524;BME280;53689;56.878;60.672;2022-12-10T02:37:39;99481.91;;;22.17;20.52
62524;BME280;53689;56.878;60.672;2022-12-10T02:40:15;99483.75;;;22.25;20.73
62524;BME280;53689;56.878;60.672;2022-12-10T02:42:49;99479.56;;;22.06;21.24
62524;BME280;53689;56.878;60.672;2022-12-10T02:45:22;99480.56;;;22.13;20.18
62524;BME280;53689;56.878;60.672;2022-12-10T02:47:53;99479.53;;;22.22;20.55
62524;BME280;53689;56.878;60.672;2022-12-10T02:50:23;99481.75;;;22.18;20.23
62524;BME280;53689;56.878;60.672;2022-12-10T02:52:51;99485.25;;;22.27;20.60
62524;BME280;53689;56.878;60.672;2022-12-10T02:55:20;99472.28;;;22.14;18.63
62524;BME280;53689;56.878;60.672;2022-12-10T02:58:01;99471.81;;;21.28;17.80
62524;BME280;53689;56.878;60.672;2022-12-10T03:00:37;99473.88;;;21.84;19.25
62524;BME280;53689;56.878;60.672;2022-12-10T03:03:30;99490.38;;;21.97;19.59
62524;BME280;53689;56.878;60.672;2022-12-10T03:06:07;99485.78;;;22.14;18.81
62524;BME280;53689;56.878;60.672;2022-12-10T03:08:40;99489.16;;;22.16;19.76
62524;BME280;53689;56.878;60.672;2022-12-10T03:11:12;99483.25;;;22.21;20.25
62524;BME280;53689;56.878;60.672;2022-12-10T03:13:45;99482.09;;;22.15;19.29
62524;BME280;53689;56.878;60.672;2022-12-10T03:16:17;99489.50;;;22.05;18.37
62524;BME280;53689;56.878;60.672;2022-12-10T03:18:46;99484.28;;;22.12;17.92
62524;BME280;53689;56.878;60.672;2022-12-10T03:21:15;99485.78;;;22.14;20.05
62524;BME280;53689;56.878;60.672;2022-12-10T03:23:46;99488.31;;;22.24;20.26
62524;BME280;53689;56.878;60.672;2022-12-10T03:26:14;99483.06;;;22.23;20.42
62524;BME280;53689;56.878;60.672;2022-12-10T03:28:46;99484.94;;;22.22;19.97
62524;BME280;53689;56.878;60.672;2022-12-10T03:31:19;99482.88;;;22.33;21.51
62524;BME280;53689;56.878;60.672;2022-12-10T03:33:48;99485.25;;;22.27;20.21
62524;BME280;53689;56.878;60.672;2022-12-10T03:36:17;99475.31;;;22.28;20.18
62524;BME280;53689;56.878;60.672;2022-12-10T03:38:46;99478.16;;;22.35;21.10
62524;BME280;53689;56.878;60.672;2022-12-10T03:41:13;99468.41;;;22.25;20.52
62524;BME280;53689;56.878;60.672;2022-12-10T03:43:52;99454.88;;;22.34;20.53
62524;BME280;53689;56.878;60.672;2022-12-10T03:46:21;99474.28;;;22.29;20.81
62524;BME280;53689;56.878;60.672;2022-12-10T03:48:50;99509.88;;;22.33;20.32
62524;BME280;53689;56.878;60.672;2022-12-10T03:51:18;99498.41;;;22.30;20.16
62524;BME280;53689;56.878;60.672;2022-12-10T03:53:47;99499.25;;;22.23;18.95
62524;BME280;53689;56.878;60.672;2022-12-10T03:56:15;99496.72;;;22.29;20.20
62524;BME280;53689;56.878;60.672;2022-12-10T03:58:43;99498.94;;;22.26;18.12
62524;BME280;53689;56.878;60.672;2022-12-10T04:01:13;99510.88;;;22.31;20.05
62524;BME280;53689;56.878;60.672;2022-12-10T04:03:43;99511.38;;;22.35;19.98
62524;BME280;53689;56.878;60.672;2022-12-10T04:06:14;99502.13;;;22.29;20.72
62524;BME280;53689;56.878;60.672;2022-12-10T04:08:42;99508.88;;;22.25;19.19
62524;BME280;53689;56.878;60.672;2022-12-10T04:11:11;99510.38;;;22.28;20.66
62524;BME280;53689;56.878;60.672;2022-12-10T04:13:40;99514.09;;;22.35;20.07
62524;BME280;53689;56.878;60.672;2022-12-10T04:16:08;99515.25;;;22.33;19.96
62524;BME280;53689;56.878;60.672;2022-12-10T04:18:36;99514.59;;;22.30;20.95
62524;BME280;53689;56.878;60.672;2022-12-10T04:21:05;99517.59;;;22.36;20.70
62524;BME280;53689;56.878;60.672;2022-12-10T04:23:33;99524.38;;;22.31;20.87
62524;BME280;53689;56.878;60.672;2022-12-10T04:26:01;99513.75;;;22.30;19.75
62524;BME280;53689;56.878;60.672;2022-12-10T04:28:29;99508.50;;;22.28;20.04
62524;BME280;53689;56.878;60.672;2022-12-10T04:30:56;99510.53;;;22.35;20.47
62524;BME280;53689;56.878;60.672;2022-12-10T04:33:24;99503.28;;;22.35;20.17
62524;BME280;53689;56.878;60.672;2022-12-10T04:35:53;99504.47;;;22.33;20.96
62524;BME280;53689;56.878;60.672;2022-12-10T04:38:22;99483.91;;;22.23;19.10
62524;BME280;53689;56.878;60.672;2022-12-10T04:40:50;99491.34;;;22.29;20.69
62524;BME280;53689;56.878;60.672;2022-12-10T04:43:18;99477.31;;;22.34;19.51
62524;BME280;53689;56.878;60.672;2022-12-10T04:45:46;99483.56;;;22.26;20.31
62524;BME280;53689;56.878;60.672;2022-12-10T04:48:14;99488.13;;;22.34;19.82
62524;BME280;53689;56.878;60.672;2022-12-10T04:50:42;99486.91;;;22.37;20.99
62524;BME280;53689;56.878;60.672;2022-12-10T04:53:10;99494.34;;;22.35;20.70
62524;BME280;53689;56.878;60.672;2022-12-10T04:55:40;99496.03;;;22.36;19.49
62524;BME280;53689;56.878;60.672;2022-12-10T04:58:07;99503.59;;;22.40;20.86
62524;BME280;53689;56.878;60.672;2022-12-10T05:00:36;99502.59;;;22.33;19.82
62524;BME280;53689;56.878;60.672;2022-12-10T05:03:04;99511.03;;;22.38;20.68
62524;BME280;53689;56.878;60.672;2022-12-10T05:05:33;99504.78;;;22.38;20.84
62524;BME280;53689;56.878;60.672;2022-12-10T05:08:02;99501.91;;;22.39;20.65
62524;BME280;53689;56.878;60.672;2022-12-10T05:10:30;99499.91;;;22.33;21.13
62524;BME280;53689;56.878;60.672;2022-12-10T05:12:59;99495.69;;;22.39;19.90
62524;BME280;53689;56.878;60.672;2022-12-10T05:15:27;99485.88;;;22.38;20.41
62524;BME280;53689;56.878;60.672;2022-12-10T05:17:54;99485.56;;;22.41;21.22
62524;BME280;53689;56.878;60.672;2022-12-10T05:20:22;99477.47;;;22.41;21.53
62524;BME280;53689;56.878;60.672;2022-12-10T05:22:50;99473.63;;;22.35;20.57
62524;BME280;53689;56.878;60.672;2022-12-10T05:25:18;99465.00;;;22.40;21.36
62524;BME280;53689;56.878;60.672;2022-12-10T05:27:46;99454.38;;;22.38;21.31
62524;BME280;53689;56.878;60.672;2022-12-10T05:30:16;99444.44;;;22.39;21.02
62524;BME280;53689;56.878;60.672;2022-12-10T05:32:44;99452.81;;;22.44;21.33
62524;BME280;53689;56.878;60.672;2022-12-10T05:35:11;99451.66;;;22.38;21.04
62524;BME280;53689;56.878;60.672;2022-12-10T05:37:40;99439.69;;;22.41;20.91
62524;BME280;53689;56.878;60.672;2022-12-10T05:40:09;99452.69;;;22.37;18.84
62524;BME280;53689;56.878;60.672;2022-12-10T05:42:37;99463.47;;;22.37;20.97
62524;BME280;53689;56.878;60.672;2022-12-10T05:45:07;99478.66;;;22.38;20.03
62524;BME280;53689;56.878;60.672;2022-12-10T05:47:36;99466.84;;;22.39;20.31
62524;BME280;53689;56.878;60.672;2022-12-10T05:50:05;99452.53;;;22.39;19.84
62524;BME280;53689;56.878;60.672;2022-12-10T05:52:34;99450.78;;;22.46;21.30
62524;BME280;53689;56.878;60.672;2022-12-10T05:55:02;99444.72;;;22.44;20.91
62524;BME280;53689;56.878;60.672;2022-12-10T05:57:30;99452.34;;;22.32;20.02
62524;BME280;53689;56.878;60.672;2022-12-10T05:59:57;99451.84;;;22.37;21.61
62524;BME280;53689;56.878;60.672;2022-12-10T06:02:25;99455.53;;;22.44;21.54
62524;BME280;53689;56.878;60.672;2022-12-10T06:04:55;99460.63;;;22.39;20.45
62524;BME280;53689;56.878;60.672;2022-12-10T06:07:24;99460.63;;;22.39;21.75
62524;BME280;53689;56.878;60.672;2022-12-10T06:09:53;99469.38;;;22.41;21.35
62524;BME280;53689;56.878;60.672;2022-12-10T06:12:21;99464.03;;;22.24;21.08
62524;BME280;53689;56.878;60.672;2022-12-10T06:14:49;99449.13;;;22.37;20.81
62524;BME280;53689;56.878;60.672;2022-12-10T06:17:17;99450.66;;;22.39;21.49
62524;BME280;53689;56.878;60.672;2022-12-10T06:19:44;99448.13;;;22.38;20.67
62524;BME280;53689;56.878;60.672;2022-12-10T06:22:13;99440.38;;;22.35;20.67
62524;BME280;53689;56.878;60.672;2022-12-10T06:24:41;99451.84;;;22.37;21.35
62524;BME280;53689;56.878;60.672;2022-12-10T06:27:09;99447.94;;;22.39;22.21
62524;BME280;53689;56.878;60.672;2022-12-10T06:29:36;99443.41;;;22.40;22.33
62524;BME280;53689;56.878;60.672;2022-12-10T06:32:04;99438.00;;;22.40;21.68
62524;BME280;53689;56.878;60.672;2022-12-10T06:34:32;99440.34;;;22.43;21.77
62524;BME280;53689;56.878;60.672;2022-12-10T06:37:03;99436.16;;;22.32;20.49
62524;BME280;53689;56.878;60.672;2022-12-10T06:39:32;99430.09;;;22.38;21.12
62524;BME280;53689;56.878;60.672;2022-12-10T06:42:00;99433.31;;;22.34;20.92
62524;BME280;53689;56.878;60.672;2022-12-10T06:44:29;99437.16;;;22.39;21.53
62524;BME280;53689;56.878;60.672;2022-12-10T06:46:56;99444.44;;;22.39;21.85
62524;BME280;53689;56.878;60.672;2022-12-10T06:49:24;99456.56;;;22.35;21.64
62524;BME280;53689;56.878;60.672;2022-12-10T06:51:52;99455.56;;;22.36;21.88
62524;BME280;53689;56.878;60.672;2022-12-10T06:54:20;99451.50;;;22.40;21.73
62524;BME280;53689;56.878;60.672;2022-12-10T06:56:49;99457.06;;;22.38;21.47
62524;BME280;53689;56.878;60.672;2022-12-10T06:59:17;99439.19;;;22.37;22.15
62524;BME280;53689;56.878;60.672;2022-12-10T07:01:45;99436.84;;;22.34;22.18
62524;BME280;53689;56.878;60.672;2022-12-10T07:04:13;99436.84;;;22.34;21.31
62524;BME280;53689;56.878;60.672;2022-12-10T07:06:40;99440.88;;;22.38;21.47
62524;BME280;53689;56.878;60.672;2022-12-10T07:09:09;99432.94;;;22.37;21.79
62524;BME280;53689;56.878;60.672;2022-12-10T07:11:37;99442.56;;;22.39;21.98
62524;BME280;53689;56.878;60.672;2022-12-10T07:14:06;99431.59;;;22.41;22.24
62524;BME280;53689;56.878;60.672;2022-12-10T07:16:34;99429.44;;;22.36;20.53
62524;BME280;53689;56.878;60.672;2022-12-10T07:19:02;99426.72;;;22.36;21.10
62524;BME280;53689;56.878;60.672;2022-12-10T07:21:31;99432.63;;;22.40;21.21
62524;BME280;53689;56.878;60.672;2022-12-10T07:24:01;99421.81;;;22.40;22.19
62524;BME280;53689;56.878;60.672;2022-12-10T07:26:30;99416.44;;;22.40;21.30
62524;BME280;53689;56.878;60.672;2022-12-10T07:28:58;99415.94;;;22.36;20.98
62524;BME280;53689;56.878;60.672;2022-12-10T07:31:28;99421.13;;;22.38;21.70
62524;BME280;53689;56.878;60.672;2022-12-10T07:33:57;99420.47;;;22.36;21.57
62524;BME280;53689;56.878;60.672;2022-12-10T07:36:25;99425.88;;;22.36;20.51
62524;BME280;53689;56.878;60.672;2022-12-10T07:38:54;99418.44;;;22.38;21.13
62524;BME280;53689;56.878;60.672;2022-12-10T07:41:26;99423.00;;;22.37;22.34
62524;BME280;53689;56.878;60.672;2022-12-10T07:43:54;99424.84;;;22.37;21.58
62524;BME280;53689;56.878;60.672;2022-12-10T07:46:24;99420.63;;;22.42;22.12
62524;BME280;53689;56.878;60.672;2022-12-10T07:48:54;99416.44;;;22.40;21.85
62524;BME280;53689;56.878;60.672;2022-12-10T07:51:22;99421.13;;;22.38;22.21
62524;BME280;53689;56.878;60.672;2022-12-10T07:53:52;99419.19;;;22.23;19.97
62524;BME280;53689;56.878;60.672;2022-12-10T07:56:21;99419.94;;;22.40;21.99
62524;BME280;53689;56.878;60.672;2022-12-10T07:58:49;99411.84;;;22.40;21.61
62524;BME280;53689;56.878;60.672;2022-12-10T08:01:19;99418.94;;;22.41;21.89
62524;BME280;53689;56.878;60.672;2022-12-10T08:03:48;99417.44;;;22.39;21.75
62524;BME280;53689;56.878;60.672;2022-12-10T08:06:20;99419.13;;;22.40;21.91
62524;BME280;53689;56.878;60.672;2022-12-10T08:08:49;99419.63;;;22.43;21.61
62524;BME280;53689;56.878;60.672;2022-12-10T08:11:18;99422.47;;;22.42;21.39
62524;BME280;53689;56.878;60.672;2022-12-10T08:13:47;99421.31;;;22.44;21.73
62524;BME280;53689;56.878;60.672;2022-12-10T08:16:25;99422.31;;;22.43;21.41
62524;BME280;53689;56.878;60.672;2022-12-10T08:18:55;99429.72;;;22.41;21.09
62524;BME280;53689;56.878;60.672;2022-12-10T08:21:26;99428.03;;;22.40;20.91
62524;BME280;53689;56.878;60.672;2022-12-10T08:23:54;99431.41;;;22.42;21.43
62524;BME280;53689;56.878;60.672;2022-12-10T08:26:25;99419.78;;;22.42;21.69
62524;BME280;53689;56.878;60.672;2022-12-10T08:28:54;99421.34;;;22.36;21.82
62524;BME280;53689;56.878;60.672;2022-12-10T08:31:24;99414.22;;;22.43;21.60
62524;BME280;53689;56.878;60.672;2022-12-10T08:33:53;99416.59;;;22.38;21.29
62524;BME280;53689;56.878;60.672;2022-12-10T08:36:20;99411.69;;;22.42;21.97
62524;BME280;53689;56.878;60.672;2022-12-10T08:38:50;99416.22;;;22.41;21.87
62524;BME280;53689;56.878;60.672;2022-12-10T08:41:21;99410.84;;;22.41;21.57
62524;BME280;53689;56.878;60.672;2022-12-10T08:43:52;99406.13;;;22.43;21.45
62524;BME280;53689;56.878;60.672;2022-12-10T08:46:19;99406.28;;;22.42;21.58
62524;BME280;53689;56.878;60.672;2022-12-10T08:48:47;99415.03;;;22.44;21.49
62524;BME280;53689;56.878;60.672;2022-12-10T08:51:18;99411.53;;;22.43;21.28
62524;BME280;53689;56.878;60.672;2022-12-10T08:53:47;99412.34;;;22.44;21.20
62524;BME280;53689;56.878;60.672;2022-12-10T08:56:16;99402.94;;;22.40;21.18
62524;BME280;53689;56.878;60.672;2022-12-10T08:58:45;99412.19;;;22.45;21.53
62524;BME280;53689;56.878;60.672;2022-12-10T09:01:15;99398.19;;;22.42;20.78
62524;BME280;53689;56.878;60.672;2022-12-10T09:03:42;99392.63;;;22.43;21.58
62524;BME280;53689;56.878;60.672;2022-12-10T09:06:13;99389.94;;;22.43;20.53
62524;BME280;53689;56.878;60.672;2022-12-10T09:08:41;99394.47;;;22.43;21.09
62524;BME280;53689;56.878;60.672;2022-12-10T09:11:10;99402.41;;;22.44;21.48
62524;BME280;53689;56.878;60.672;2022-12-10T09:13:42;99389.94;;;22.43;20.75
62524;BME280;53689;56.878;60.672;2022-12-10T09:16:10;99389.56;;;22.47;21.47
62524;BME280;53689;56.878;60.672;2022-12-10T09:18:38;99393.47;;;22.44;21.46
62524;BME280;53689;56.878;60.672;2022-12-10T09:21:06;99395.13;;;22.45;19.38
62524;BME280;53689;56.878;60.672;2022-12-10T09:23:35;99400.72;;;22.43;20.06
62524;BME280;53689;56.878;60.672;2022-12-10T09:26:05;99390.59;;;22.45;21.36
62524;BME280;53689;56.878;60.672;2022-12-10T09:28:34;99392.63;;;22.43;20.95
62524;BME280;53689;56.878;60.672;2022-12-10T09:31:05;99386.22;;;22.44;21.11
62524;BME280;53689;56.878;60.672;2022-12-10T09:33:41;99373.22;;;22.48;21.54
62524;BME280;53689;56.878;60.672;2022-12-10T09:36:11;99386.03;;;22.46;21.01
62524;BME280;53689;56.878;60.672;2022-12-10T09:38:40;99386.72;;;22.48;21.03
62524;BME280;53689;56.878;60.672;2022-12-10T09:41:31;99382.00;;;22.42;19.82
62524;BME280;53689;56.878;60.672;2022-12-10T09:44:08;99385.38;;;22.44;20.57
62524;BME280;53689;56.878;60.672;2022-12-10T09:46:48;99383.06;;;22.33;20.01
62524;BME280;53689;56.878;60.672;2022-12-10T09:49:26;99379.31;;;22.50;21.69
62524;BME280;53689;56.878;60.672;2022-12-10T09:51:56;99372.38;;;22.48;21.09
62524;BME280;53689;56.878;60.672;2022-12-10T09:54:27;99370.53;;;22.48;20.07
62524;BME280;53689;56.878;60.672;2022-12-10T09:56:58;99379.59;;;22.47;21.52
62524;BME280;53689;56.878;60.672;2022-12-10T09:59:30;99368.53;;;22.42;20.40
62524;BME280;53689;56.878;60.672;2022-12-10T10:02:10;99367.13;;;22.46;19.95
62524;BME280;53689;56.878;60.672;2022-12-10T10:04:44;99358.53;;;22.51;21.41
62524;BME280;53689;56.878;60.672;2022-12-10T10:07:18;99359.72;;;22.48;21.22
62524;BME280;53689;56.878;60.672;2022-12-10T10:09:47;99369.53;;;22.49;20.97
62524;BME280;53689;56.878;60.672;2022-12-10T10:12:16;99362.44;;;22.48;20.81
62524;BME280;53689;56.878;60.672;2022-12-10T10:14:45;99359.41;;;22.51;21.28
62524;BME280;53689;56.878;60.672;2022-12-10T10:17:18;99365.63;;;22.52;20.95
62524;BME280;53689;56.878;60.672;2022-12-10T10:19:47;99351.97;;;22.53;21.17
62524;BME280;53689;56.878;60.672;2022-12-10T10:22:15;99353.63;;;22.54;21.14
62524;BME280;53689;56.878;60.672;2022-12-10T10:24:45;99359.88;;;22.55;21.34
62524;BME280;53689;56.878;60.672;2022-12-10T10:27:15;99351.59;;;22.56;21.07
62524;BME280;53689;56.878;60.672;2022-12-10T10:29:46;99358.00;;;22.55;20.75
62524;BME280;53689;56.878;60.672;2022-12-10T10:32:25;99359.53;;;22.58;21.67
62524;BME280;53689;56.878;60.672;2022-12-10T10:34:54;99356.00;;;22.57;20.66
62524;BME280;53689;56.878;60.672;2022-12-10T10:37:25;99351.78;;;22.55;21.38
62524;BME280;53689;56.878;60.672;2022-12-10T10:39:55;99351.97;;;22.53;20.93
62524;BME280;53689;56.878;60.672;2022-12-10T10:42:28;99347.03;;;22.57;20.73
62524;BME280;53689;56.878;60.672;2022-12-10T10:45:02;99347.22;;;22.55;21.32
62524;BME280;53689;56.878;60.672;2022-12-10T10:47:33;99364.09;;;22.57;21.50
62524;BME280;53689;56.878;60.672;2022-12-10T10:50:03;99373.00;;;22.58;21.64
62524;BME280;53689;56.878;60.672;2022-12-10T10:52:37;99363.91;;;22.59;21.68
62524;BME280;53689;56.878;60.672;2022-12-10T10:55:32;99366.97;;;22.56;21.02
62524;BME280;53689;56.878;60.672;2022-12-10T10:58:00;99366.09;;;22.55;21.52
62524;BME280;53689;56.878;60.672;2022-12-10T11:00:30;99355.31;;;22.55;21.19
62524;BME280;53689;56.878;60.672;2022-12-10T11:02:59;99350.94;;;22.54;20.85
62524;BME280;53689;56.878;60.672;2022-12-10T11:05:29;99356.34;;;22.54;21.71
62524;BME280;53689;56.878;60.672;2022-12-10T11:08:04;99346.19;;;22.56;21.35
62524;BME280;53689;56.878;60.672;2022-12-10T11:10:33;99346.19;;;22.56;21.82
62524;BME280;53689;56.878;60.672;2022-12-10T11:13:05;99345.38;;;22.56;20.97
62524;BME280;53689;56.878;60.672;2022-12-10T11:15:35;99342.50;;;22.57;20.94
62524;BME280;53689;56.878;60.672;2022-12-10T11:18:14;99329.34;;;22.54;20.81
62524;BME280;53689;56.878;60.672;2022-12-10T11:20:57;99330.84;;;22.57;20.91
62524;BME280;53689;56.878;60.672;2022-12-10T11:23:28;99334.41;;;22.57;21.31
62524;BME280;53689;56.878;60.672;2022-12-10T11:26:02;99332.38;;;22.59;21.07
62524;BME280;53689;56.878;60.672;2022-12-10T11:28:43;99330.31;;;22.62;21.87
62524;BME280;53689;56.878;60.672;2022-12-10T11:31:26;99331.34;;;22.61;21.62
62524;BME280;53689;56.878;60.672;2022-12-10T11:34:08;99320.22;;;22.55;21.61
62524;BME280;53689;56.878;60.672;2022-12-10T11:36:49;99331.50;;;22.59;21.75
62524;BME280;53689;56.878;60.672;2022-12-10T11:39:35;99331.72;;;22.57;21.05
62524;BME280;53689;56.878;60.672;2022-12-10T11:42:13;99320.72;;;22.59;20.88
62524;BME280;53689;56.878;60.672;2022-12-10T11:44:53;99329.84;;;22.58;21.62
62524;BME280;53689;56.878;60.672;2022-12-10T11:47:39;99319.41;;;22.55;21.02
62524;BME280;53689;56.878;60.672;2022-12-10T11:50:23;99333.25;;;22.12;21.84
62524;BME280;53689;56.878;60.672;2022-12-10T11:53:12;99333.44;;;22.42;21.83
62524;BME280;53689;56.878;60.672;2022-12-10T11:55:50;99324.81;;;22.47;21.59
62524;BME280;53689;56.878;60.672;2022-12-10T11:58:42;99319.75;;;22.52;21.24
62524;BME280;53689;56.878;60.672;2022-12-10T12:01:12;99311.63;;;22.52;21.19
62524;BME280;53689;56.878;60.672;2022-12-10T12:04:01;99327.13;;;22.58;21.31
62524;BME280;53689;56.878;60.672;2022-12-10T12:06:55;99318.38;;;22.56;21.20
62524;BME280;53689;56.878;60.672;2022-12-10T12:09:35;99319.22;;;22.56;21.42
62524;BME280;53689;56.878;60.672;2022-12-10T12:12:14;99311.78;;;22.58;21.14
62524;BME280;53689;56.878;60.672;2022-12-10T12:14:49;99310.44;;;22.54;20.22
62524;BME280;53689;56.878;60.672;2022-12-10T12:17:22;99306.72;;;22.55;20.91
62524;BME280;53689;56.878;60.672;2022-12-10T12:19:54;99294.25;;;22.54;20.88
62524;BME280;53689;56.878;60.672;2022-12-10T12:22:25;99300.31;;;22.56;20.79
62524;BME280;53689;56.878;60.672;2022-12-10T12:24:57;99282.28;;;22.57;21.03
62524;BME280;53689;56.878;60.672;2022-12-10T12:27:28;99296.78;;;22.56;21.49
62524;BME280;53689;56.878;60.672;2022-12-10T12:30:04;99297.28;;;22.59;21.79
62524;BME280;53689;56.878;60.672;2022-12-10T12:32:44;99290.91;;;22.52;20.82
62524;BME280;53689;56.878;60.672;2022-12-10T12:35:17;99302.03;;;22.57;21.55
62524;BME280;53689;56.878;60.672;2022-12-10T12:37:54;99297.44;;;22.58;21.19
62524;BME280;53689;56.878;60.672;2022-12-10T12:40:28;99287.66;;;22.57;20.63
62524;BME280;53689;56.878;60.672;2022-12-10T12:42:59;99293.91;;;22.57;20.88
62524;BME280;53689;56.878;60.672;2022-12-10T12:45:36;99281.72;;;22.62;20.92
62524;BME280;53689;56.878;60.672;2022-12-10T12:48:16;99280.88;;;22.61;20.79
62524;BME280;53689;56.878;60.672;2022-12-10T12:50:48;99280.72;;;22.63;21.38
62524;BME280;53689;56.878;60.672;2022-12-10T12:53:21;99268.41;;;22.60;20.43
62524;BME280;53689;56.878;60.672;2022-12-10T12:55:56;99270.94;;;22.62;20.70
62524;BME280;53689;56.878;60.672;2022-12-10T12:58:33;99270.28;;;22.59;19.41
62524;BME280;53689;56.878;60.672;2022-12-10T13:01:12;99260.69;;;22.57;20.68
62524;BME280;53689;56.878;60.672;2022-12-10T13:03:43;99265.53;;;22.62;20.75
62524;BME280;53689;56.878;60.672;2022-12-10T13:06:19;99248.31;;;22.63;20.92
62524;BME280;53689;56.878;60.672;2022-12-10T13:08:50;99263.00;;;22.60;20.91
62524;BME280;53689;56.878;60.672;2022-12-10T13:11:32;99263.13;;;22.67;21.07